createdAt,value
2019-03-24T00:00:49.380Z,26.37
2019-03-24T00:04:52.911Z,27.50
2019-03-24T00:08:54.830Z,44.65
2019-03-24T00:12:56.877Z,43.38
2019-03-24T00:16:58.796Z,32.30
2019-03-24T00:21:08.298Z,47.10
2019-03-24T00:25:10.551Z,39.90
2019-03-24T00:29:12.502Z,36.67
2019-03-24T00:33:14.396Z,34.57
2019-03-24T00:37:16.306Z,28.90
2019-03-24T00:41:18.219Z,40.80
2019-03-24T00:45:20.144Z,29.53
2019-03-24T00:49:22.036Z,41.20
2019-03-24T00:53:24.002Z,28.03
2019-03-24T00:57:25.869Z,29.53
2019-03-24T01:01:27.789Z,30.87
2019-03-24T01:05:29.698Z,33.57
2019-03-24T01:09:31.879Z,29.70
2019-03-24T01:13:33.774Z,30.70
2019-03-24T01:17:35.747Z,31.53
2019-03-24T01:21:37.846Z,34.23
2019-03-24T01:25:40.761Z,28.22
2019-03-24T01:29:42.671Z,26.27
2019-03-24T01:33:44.575Z,34.20
2019-03-24T01:37:46.471Z,33.40
2019-03-24T01:41:48.385Z,26.70
2019-03-24T01:45:58.100Z,41.42
2019-03-24T01:49:53.918Z,39.70
2019-03-24T01:53:55.830Z,26.73
2019-03-24T01:57:57.742Z,33.25
2019-03-24T02:01:59.664Z,28.10
2019-03-24T02:06:01.646Z,31.87
2019-03-24T02:10:04.714Z,36.70
2019-03-24T02:14:06.605Z,32.00
2019-03-24T02:18:08.608Z,30.57
2019-03-24T02:22:10.594Z,40.47
2019-03-24T02:26:12.515Z,43.10
2019-03-24T02:30:14.787Z,45.07
2019-03-24T02:34:16.734Z,38.37
2019-03-24T02:38:18.675Z,38.57
2019-03-24T02:42:20.558Z,31.00
2019-03-24T02:46:24.790Z,33.87
2019-03-24T02:50:27.025Z,28.17
2019-03-24T02:54:29.089Z,29.70
2019-03-24T02:58:30.990Z,39.17
2019-03-24T03:02:32.916Z,31.67
2019-03-24T03:06:34.925Z,32.07
2019-03-24T03:10:36.816Z,30.45
2019-03-24T03:14:38.811Z,31.03
2019-03-24T03:18:40.875Z,37.93
2019-03-24T03:22:42.773Z,29.43
2019-03-24T03:26:44.749Z,33.57
2019-03-24T03:30:46.658Z,29.00
2019-03-24T03:34:49.609Z,33.83
2019-03-24T03:38:52.007Z,36.90
2019-03-24T03:42:53.939Z,34.60
2019-03-24T03:46:55.835Z,26.10
2019-03-24T03:50:57.791Z,33.70
2019-03-24T03:54:59.705Z,35.00
2019-03-24T03:59:01.616Z,33.97
2019-03-24T04:03:05.356Z,34.83
2019-03-24T04:07:08.208Z,32.00
2019-03-24T04:11:28.939Z,35.80
2019-03-24T04:15:30.901Z,37.80
2019-03-24T04:19:32.837Z,32.57
2019-03-24T04:23:34.732Z,29.30
2019-03-24T04:27:36.675Z,25.87
2019-03-24T04:31:38.563Z,39.30
2019-03-24T04:35:41.449Z,36.73
2019-03-24T04:39:43.346Z,36.30
2019-03-24T04:43:45.264Z,39.08
2019-03-24T04:47:48.130Z,35.53
2019-03-24T04:51:50.038Z,42.67
2019-03-24T04:55:51.961Z,39.92
2019-03-24T04:59:54.845Z,37.43
2019-03-24T05:03:56.802Z,26.25
2019-03-24T05:07:59.999Z,38.75
2019-03-24T05:12:01.958Z,36.13
2019-03-24T05:16:03.857Z,41.37
2019-03-24T05:20:07.781Z,33.27
2019-03-24T05:24:09.879Z,38.77
2019-03-24T05:28:11.788Z,39.57
2019-03-24T05:32:13.710Z,47.17
2019-03-24T05:36:15.610Z,36.93
2019-03-24T05:40:17.535Z,40.20
2019-03-24T05:44:26.139Z,42.43
2019-03-24T05:48:29.028Z,35.53
2019-03-24T05:52:30.932Z,41.93
2019-03-24T05:56:32.900Z,46.90
2019-03-24T06:00:34.866Z,41.63
2019-03-24T06:04:36.772Z,44.00
2019-03-24T06:08:38.702Z,39.23
2019-03-24T06:12:40.998Z,42.43
2019-03-24T06:16:42.911Z,45.00
2019-03-24T06:20:44.823Z,52.23
2019-03-24T06:24:47.003Z,52.95
2019-03-24T06:28:48.895Z,29.57
2019-03-24T06:32:50.813Z,37.27
2019-03-24T06:36:52.733Z,36.63
2019-03-24T06:40:54.643Z,51.00
2019-03-24T06:44:56.568Z,38.17
2019-03-24T06:48:59.461Z,42.97
2019-03-24T06:53:01.570Z,50.80
2019-03-24T06:57:03.459Z,52.90
2019-03-24T07:01:05.386Z,48.50
2019-03-24T07:05:07.694Z,47.97
2019-03-24T07:09:09.615Z,37.83
2019-03-24T07:13:11.510Z,48.77
2019-03-24T07:17:13.428Z,47.73
2019-03-24T07:21:15.357Z,46.77
2019-03-24T07:25:17.257Z,43.33
2019-03-24T07:29:19.169Z,45.53
2019-03-24T07:33:21.111Z,43.23
2019-03-24T07:37:23.007Z,38.50
2019-03-24T07:41:24.932Z,42.73
2019-03-24T07:45:26.861Z,43.90
2019-03-24T07:49:28.889Z,41.27
2019-03-24T07:53:30.791Z,41.27
2019-03-24T07:57:32.933Z,40.17
2019-03-24T08:01:34.885Z,40.87
2019-03-24T08:05:36.803Z,42.90
2019-03-24T08:09:38.726Z,38.37
2019-03-24T08:13:41.106Z,38.83
2019-03-24T08:17:59.278Z,36.33
2019-03-24T08:22:01.175Z,38.57
2019-03-24T08:26:03.263Z,40.93
2019-03-24T08:30:07.550Z,40.55
2019-03-24T08:34:09.446Z,40.97
2019-03-24T08:38:11.352Z,36.23
2019-03-24T08:42:13.250Z,40.78
2019-03-24T08:46:15.201Z,36.60
2019-03-24T08:50:17.166Z,36.67
2019-03-24T08:54:19.069Z,39.00
2019-03-24T08:58:20.968Z,36.97
2019-03-24T09:02:23.130Z,34.37
2019-03-24T09:06:25.037Z,35.63
2019-03-24T09:10:26.966Z,36.27
2019-03-24T09:14:28.858Z,33.20
2019-03-24T09:18:30.774Z,37.33
2019-03-24T09:22:32.688Z,35.37
2019-03-24T09:26:34.626Z,39.27
2019-03-24T09:30:37.928Z,28.63
2019-03-24T09:34:41.108Z,29.73
2019-03-24T09:38:44.093Z,39.43
2019-03-24T09:42:46.019Z,37.65
2019-03-24T09:46:47.939Z,35.48
2019-03-24T09:50:49.871Z,35.93
2019-03-24T09:54:51.802Z,38.40
2019-03-24T09:58:53.744Z,35.15
2019-03-24T10:02:55.717Z,38.57
2019-03-24T10:06:57.651Z,38.08
2019-03-24T10:11:15.606Z,36.10
2019-03-24T10:15:18.295Z,37.40
2019-03-24T10:19:20.212Z,34.20
2019-03-24T10:23:22.126Z,31.90
2019-03-24T10:27:24.046Z,34.93
2019-03-24T10:31:25.956Z,36.03
2019-03-24T10:35:27.880Z,33.50
2019-03-24T10:39:31.851Z,35.63
2019-03-24T10:43:33.467Z,37.57
2019-03-24T10:47:35.406Z,34.17
2019-03-24T10:51:37.315Z,34.13
2019-03-24T10:55:39.281Z,35.37
2019-03-24T10:59:41.341Z,35.90
2019-03-24T11:03:43.274Z,35.23
2019-03-24T11:07:45.273Z,35.20
2019-03-24T11:11:47.208Z,35.27
2019-03-24T11:15:49.363Z,28.47
2019-03-24T11:19:51.276Z,36.07
2019-03-24T11:23:54.277Z,32.42
2019-03-24T11:27:56.217Z,34.55
2019-03-24T11:31:58.127Z,36.13
2019-03-24T11:36:00.059Z,34.00
2019-03-24T11:40:01.988Z,33.63
2019-03-24T11:44:03.992Z,35.53
2019-03-24T11:48:06.693Z,35.90
2019-03-24T11:52:08.684Z,34.90
2019-03-24T11:56:10.842Z,34.07
2019-03-24T12:00:17.674Z,32.17
2019-03-24T12:04:19.596Z,34.10
2019-03-24T12:08:21.537Z,34.50
2019-03-24T12:12:23.448Z,35.53
2019-03-24T12:16:25.566Z,35.68
2019-03-24T12:20:27.504Z,33.13
2019-03-24T12:24:29.449Z,31.27
2019-03-24T12:28:31.389Z,33.67
2019-03-24T12:32:33.322Z,35.25
2019-03-24T12:36:35.230Z,34.70
2019-03-24T12:40:37.152Z,31.67
2019-03-24T12:44:39.062Z,34.67
2019-03-24T12:48:41.409Z,31.03
2019-03-24T12:52:43.350Z,31.83
2019-03-24T12:56:45.274Z,33.77
2019-03-24T13:00:47.201Z,30.08
2019-03-24T13:04:59.273Z,28.87
2019-03-24T13:09:01.642Z,29.37
2019-03-24T13:13:04.912Z,30.53
2019-03-24T13:17:06.910Z,31.53
2019-03-24T13:21:08.901Z,31.33
2019-03-24T13:25:11.145Z,30.27
2019-03-24T13:29:13.054Z,27.53
2019-03-24T13:33:14.980Z,29.27
2019-03-24T13:37:16.890Z,30.00
2019-03-24T13:41:18.816Z,31.60
2019-03-24T13:45:20.799Z,31.80
2019-03-24T13:49:22.727Z,31.07
2019-03-24T13:53:24.865Z,29.63
2019-03-24T13:57:26.847Z,29.00
2019-03-24T14:01:29.815Z,29.73
2019-03-24T14:05:31.739Z,29.90
2019-03-24T14:09:33.688Z,30.10
2019-03-24T14:13:35.646Z,30.77
2019-03-24T14:17:37.941Z,30.33
2019-03-24T14:21:39.872Z,28.07
2019-03-24T14:25:41.779Z,29.37
2019-03-24T14:29:43.720Z,31.33
2019-03-24T14:33:53.755Z,22.30
2019-03-24T14:37:55.678Z,31.85
2019-03-24T14:41:57.587Z,28.63
2019-03-24T14:45:59.506Z,29.57
2019-03-24T14:50:01.726Z,31.80
2019-03-24T14:54:03.649Z,33.70
2019-03-24T14:58:05.581Z,32.10
2019-03-24T15:02:07.952Z,33.23
2019-03-24T15:06:09.856Z,30.73
2019-03-24T15:10:12.195Z,32.53
2019-03-24T15:14:15.135Z,33.50
2019-03-24T15:18:17.041Z,35.60
2019-03-24T15:22:18.952Z,34.37
2019-03-24T15:26:20.893Z,36.73
2019-03-24T15:30:22.916Z,35.97
2019-03-24T15:34:25.087Z,30.70
2019-03-24T15:38:27.001Z,34.33
2019-03-24T15:42:28.932Z,34.03
2019-03-24T15:46:30.843Z,36.97
2019-03-24T15:50:32.847Z,37.23
2019-03-24T15:54:34.750Z,37.20
2019-03-24T15:58:36.676Z,38.00
2019-03-24T16:02:38.597Z,36.70
2019-03-24T16:06:41.585Z,36.50
2019-03-24T16:10:51.709Z,35.93
2019-03-24T16:14:53.717Z,37.57
2019-03-24T16:18:55.691Z,30.07
2019-03-24T16:22:57.616Z,36.65
2019-03-24T16:26:59.530Z,38.30
2019-03-24T16:31:01.716Z,38.63
2019-03-24T16:35:04.463Z,36.20
2019-03-24T16:39:09.006Z,39.67
2019-03-24T16:43:10.928Z,36.17
2019-03-24T16:47:12.856Z,38.77
2019-03-24T16:51:14.773Z,37.30
2019-03-24T16:55:16.693Z,34.00
2019-03-24T16:59:18.610Z,40.10
2019-03-24T17:03:21.518Z,37.40
2019-03-24T17:07:23.453Z,38.13
2019-03-24T17:11:25.382Z,39.90
2019-03-24T17:15:27.357Z,39.67
2019-03-24T17:19:29.275Z,38.53
2019-03-24T17:23:31.195Z,37.23
2019-03-24T17:27:33.111Z,37.03
2019-03-24T17:31:35.029Z,36.60
2019-03-24T17:35:38.082Z,35.40
2019-03-24T17:39:40.022Z,35.57
2019-03-24T17:43:41.957Z,32.33
2019-03-24T17:47:43.937Z,35.30
2019-03-24T17:51:45.920Z,36.28
2019-03-24T17:55:55.598Z,36.83
2019-03-24T17:59:57.520Z,37.93
2019-03-24T18:03:59.445Z,41.10
2019-03-24T18:08:01.356Z,37.30
2019-03-24T18:12:03.282Z,34.63
2019-03-24T18:16:05.524Z,34.00
2019-03-24T18:20:09.543Z,35.03
2019-03-24T18:24:11.520Z,34.63
2019-03-24T18:28:13.420Z,26.30
2019-03-24T18:32:15.593Z,36.03
2019-03-24T18:36:17.498Z,35.13
2019-03-24T18:40:20.644Z,35.33
2019-03-24T18:44:22.565Z,35.13
2019-03-24T18:48:24.476Z,38.73
2019-03-24T18:52:26.397Z,34.40
2019-03-24T18:56:28.326Z,37.47
2019-03-24T19:00:30.256Z,37.00
2019-03-24T19:04:32.277Z,32.43
2019-03-24T19:08:34.195Z,31.67
2019-03-24T19:12:36.277Z,33.90
2019-03-24T19:16:38.191Z,34.77
2019-03-24T19:20:40.103Z,33.00
2019-03-24T19:24:42.002Z,30.90
2019-03-24T19:28:43.941Z,30.53
2019-03-24T19:32:46.300Z,32.10
2019-03-24T19:36:50.117Z,30.92
2019-03-24T19:40:52.037Z,29.40
2019-03-24T19:44:53.978Z,24.80
2019-03-24T19:48:55.881Z,30.15
2019-03-24T19:52:57.784Z,28.33
2019-03-24T19:56:59.763Z,28.80
2019-03-24T20:01:01.863Z,31.90
2019-03-24T20:05:03.920Z,24.35
2019-03-24T20:09:09.186Z,24.17
2019-03-24T20:13:11.110Z,30.53
2019-03-24T20:17:13.021Z,30.60
2019-03-24T20:21:14.944Z,29.63
2019-03-24T20:25:16.829Z,31.13
2019-03-24T20:29:18.735Z,33.50
2019-03-24T20:33:20.720Z,29.03
2019-03-24T20:37:22.700Z,25.07
2019-03-24T20:41:28.576Z,25.47
2019-03-24T20:45:30.496Z,25.17
2019-03-24T20:49:32.388Z,30.50
2019-03-24T20:53:34.281Z,27.50
2019-03-24T20:57:36.201Z,26.67
2019-03-24T21:01:38.093Z,20.63
2019-03-24T21:05:40.002Z,18.37
2019-03-24T21:09:41.967Z,20.77
2019-03-24T21:13:45.266Z,19.67
2019-03-24T21:17:47.144Z,31.45
2019-03-24T21:21:49.082Z,31.30
2019-03-24T21:25:50.978Z,23.23
2019-03-24T21:29:52.887Z,24.87
2019-03-24T21:33:54.786Z,17.52
2019-03-24T21:37:56.691Z,16.03
2019-03-24T21:41:58.614Z,16.67
2019-03-24T21:46:00.673Z,20.57
2019-03-24T21:50:02.649Z,27.50
2019-03-24T21:54:04.917Z,17.87
2019-03-24T21:58:06.987Z,18.57
2019-03-24T22:02:09.001Z,17.43
2019-03-24T22:06:11.093Z,18.07
2019-03-24T22:10:22.441Z,22.93
2019-03-24T22:14:24.348Z,18.03
2019-03-24T22:18:27.212Z,16.93
2019-03-24T22:22:29.176Z,27.07
2019-03-24T22:26:31.076Z,13.83
2019-03-24T22:30:32.990Z,19.97
2019-03-24T22:34:34.889Z,19.73
2019-03-24T22:38:36.847Z,19.83
2019-03-24T22:42:38.761Z,19.13
2019-03-24T22:46:42.738Z,19.57
2019-03-24T22:50:44.649Z,17.57
2019-03-24T22:54:46.560Z,18.47
2019-03-24T22:58:48.471Z,16.48
2019-03-24T23:02:50.362Z,18.02
2019-03-24T23:06:52.274Z,16.90
2019-03-24T23:10:54.292Z,23.87
2019-03-24T23:14:56.190Z,19.13
2019-03-24T23:18:58.098Z,17.53
2019-03-24T23:23:00.010Z,14.60
2019-03-24T23:27:02.805Z,14.10
2019-03-24T23:31:04.726Z,21.07
2019-03-24T23:35:09.592Z,21.33
2019-03-24T23:39:11.502Z,20.97
2019-03-24T23:43:13.401Z,20.30
2019-03-24T23:47:15.329Z,17.33
2019-03-24T23:51:18.174Z,15.63
2019-03-24T23:55:21.042Z,16.73
2019-03-24T23:59:22.965Z,21.53
